sensor_id;sensor_type;location;lat;lon;timestamp;P1;durP1;ratioP1;P2;durP2;ratioP2
51883;SDS011;37915;53.254;6.598;2023-12-29T00:00:56;17.10;;;3.90;;
51883;SDS011;37915;53.254;6.598;2023-12-29T00:03:22;20.60;;;4.32;;
51883;SDS011;37915;53.254;6.598;2023-12-29T00:05:48;12.20;;;3.58;;
51883;SDS011;37915;53.254;6.598;2023-12-29T00:08:14;15.30;;;4.28;;
51883;SDS011;37915;53.254;6.598;2023-12-29T00:10:40;13.77;;;4.35;;
51883;SDS011;37915;53.254;6.598;2023-12-29T00:13:06;17.15;;;4.10;;
51883;SDS011;37915;53.254;6.598;2023-12-29T00:15:33;14.98;;;3.70;;
51883;SDS011;37915;53.254;6.598;2023-12-29T00:17:59;14.95;;;3.97;;
51883;SDS011;37915;53.254;6.598;2023-12-29T00:20:25;16.42;;;4.15;;
51883;SDS011;37915;53.254;6.598;2023-12-29T00:22:51;16.63;;;4.05;;
51883;SDS011;37915;53.254;6.598;2023-12-29T00:25:19;11.85;;;3.80;;
51883;SDS011;37915;53.254;6.598;2023-12-29T00:27:45;15.65;;;4.03;;
51883;SDS011;37915;53.254;6.598;2023-12-29T00:30:11;11.23;;;3.38;;
51883;SDS011;37915;53.254;6.598;2023-12-29T00:32:37;17.10;;;4.63;;
51883;SDS011;37915;53.254;6.598;2023-12-29T00:35:03;18.55;;;4.38;;
51883;SDS011;37915;53.254;6.598;2023-12-29T00:37:29;13.43;;;3.20;;
51883;SDS011;37915;53.254;6.598;2023-12-29T00:39:55;18.17;;;3.85;;
51883;SDS011;37915;53.254;6.598;2023-12-29T00:42:22;12.25;;;4.65;;
51883;SDS011;37915;53.254;6.598;2023-12-29T00:44:48;12.32;;;3.92;;
51883;SDS011;37915;53.254;6.598;2023-12-29T00:47:14;19.20;;;4.60;;
51883;SDS011;37915;53.254;6.598;2023-12-29T00:49:40;19.05;;;4.05;;
51883;SDS011;37915;53.254;6.598;2023-12-29T00:52:06;30.80;;;5.13;;
51883;SDS011;37915;53.254;6.598;2023-12-29T00:54:32;12.13;;;3.55;;
51883;SDS011;37915;53.254;6.598;2023-12-29T00:56:58;18.70;;;4.72;;
51883;SDS011;37915;53.254;6.598;2023-12-29T00:59:25;21.60;;;5.05;;
51883;SDS011;37915;53.254;6.598;2023-12-29T01:01:51;18.23;;;4.72;;
51883;SDS011;37915;53.254;6.598;2023-12-29T01:04:17;15.18;;;4.13;;
51883;SDS011;37915;53.254;6.598;2023-12-29T01:06:43;19.38;;;3.67;;
51883;SDS011;37915;53.254;6.598;2023-12-29T01:09:09;19.02;;;3.97;;
51883;SDS011;37915;53.254;6.598;2023-12-29T01:11:36;18.63;;;4.93;;
51883;SDS011;37915;53.254;6.598;2023-12-29T01:14:03;18.42;;;3.70;;
51883;SDS011;37915;53.254;6.598;2023-12-29T01:16:30;21.02;;;4.18;;
51883;SDS011;37915;53.254;6.598;2023-12-29T01:18:56;17.48;;;4.65;;
51883;SDS011;37915;53.254;6.598;2023-12-29T01:21:23;20.80;;;4.20;;
51883;SDS011;37915;53.254;6.598;2023-12-29T01:23:49;20.60;;;4.57;;
51883;SDS011;37915;53.254;6.598;2023-12-29T01:26:15;22.45;;;3.95;;
51883;SDS011;37915;53.254;6.598;2023-12-29T01:28:41;20.05;;;4.82;;
51883;SDS011;37915;53.254;6.598;2023-12-29T01:31:07;16.58;;;4.00;;
51883;SDS011;37915;53.254;6.598;2023-12-29T01:33:34;20.25;;;4.25;;
51883;SDS011;37915;53.254;6.598;2023-12-29T01:36:00;16.55;;;4.53;;
51883;SDS011;37915;53.254;6.598;2023-12-29T01:38:26;18.00;;;4.57;;
51883;SDS011;37915;53.254;6.598;2023-12-29T01:40:52;18.55;;;4.05;;
51883;SDS011;37915;53.254;6.598;2023-12-29T01:43:18;20.50;;;4.50;;
51883;SDS011;37915;53.254;6.598;2023-12-29T01:45:44;19.63;;;4.63;;
51883;SDS011;37915;53.254;6.598;2023-12-29T01:48:10;17.90;;;4.03;;
51883;SDS011;37915;53.254;6.598;2023-12-29T01:50:37;16.08;;;5.00;;
51883;SDS011;37915;53.254;6.598;2023-12-29T01:53:03;21.80;;;5.30;;
51883;SDS011;37915;53.254;6.598;2023-12-29T01:55:29;21.33;;;4.60;;
51883;SDS011;37915;53.254;6.598;2023-12-29T01:57:56;16.73;;;4.63;;
51883;SDS011;37915;53.254;6.598;2023-12-29T02:00:22;16.38;;;4.53;;
51883;SDS011;37915;53.254;6.598;2023-12-29T02:02:48;25.33;;;4.57;;
51883;SDS011;37915;53.254;6.598;2023-12-29T02:05:15;19.20;;;4.75;;
51883;SDS011;37915;53.254;6.598;2023-12-29T02:07:41;13.85;;;3.30;;
51883;SDS011;37915;53.254;6.598;2023-12-29T02:10:08;16.45;;;3.17;;
51883;SDS011;37915;53.254;6.598;2023-12-29T02:12:38;13.07;;;2.83;;
51883;SDS011;37915;53.254;6.598;2023-12-29T02:15:05;11.18;;;2.42;;
51883;SDS011;37915;53.254;6.598;2023-12-29T02:17:32;14.65;;;2.78;;
51883;SDS011;37915;53.254;6.598;2023-12-29T02:20:00;11.73;;;2.30;;
51883;SDS011;37915;53.254;6.598;2023-12-29T02:22:26;7.70;;;2.38;;
51883;SDS011;37915;53.254;6.598;2023-12-29T02:24:52;8.15;;;2.28;;
51883;SDS011;37915;53.254;6.598;2023-12-29T02:27:38;8.88;;;2.50;;
51883;SDS011;37915;53.254;6.598;2023-12-29T02:30:10;8.32;;;1.80;;
51883;SDS011;37915;53.254;6.598;2023-12-29T02:32:38;10.25;;;2.25;;
51883;SDS011;37915;53.254;6.598;2023-12-29T02:35:06;8.15;;;2.13;;
51883;SDS011;37915;53.254;6.598;2023-12-29T02:37:33;10.20;;;2.70;;
51883;SDS011;37915;53.254;6.598;2023-12-29T02:40:01;12.20;;;3.65;;
51883;SDS011;37915;53.254;6.598;2023-12-29T02:42:27;17.63;;;3.30;;
51883;SDS011;37915;53.254;6.598;2023-12-29T02:44:53;11.27;;;3.47;;
51883;SDS011;37915;53.254;6.598;2023-12-29T02:47:19;16.70;;;2.95;;
51883;SDS011;37915;53.254;6.598;2023-12-29T02:49:46;17.13;;;4.05;;
51883;SDS011;37915;53.254;6.598;2023-12-29T02:52:13;14.23;;;3.42;;
51883;SDS011;37915;53.254;6.598;2023-12-29T02:54:39;14.00;;;4.05;;
51883;SDS011;37915;53.254;6.598;2023-12-29T02:57:05;12.68;;;3.30;;
51883;SDS011;37915;53.254;6.598;2023-12-29T02:59:31;8.82;;;3.20;;
51883;SDS011;37915;53.254;6.598;2023-12-29T03:01:57;18.33;;;3.75;;
51883;SDS011;37915;53.254;6.598;2023-12-29T03:04:24;18.30;;;3.33;;
51883;SDS011;37915;53.254;6.598;2023-12-29T03:06:50;16.70;;;4.13;;
51883;SDS011;37915;53.254;6.598;2023-12-29T03:09:16;11.70;;;3.65;;
51883;SDS011;37915;53.254;6.598;2023-12-29T03:11:42;14.38;;;4.70;;
51883;SDS011;37915;53.254;6.598;2023-12-29T03:14:08;16.55;;;4.65;;
51883;SDS011;37915;53.254;6.598;2023-12-29T03:16:34;18.17;;;4.20;;
51883;SDS011;37915;53.254;6.598;2023-12-29T03:19:00;26.88;;;5.00;;
51883;SDS011;37915;53.254;6.598;2023-12-29T03:21:26;20.98;;;5.72;;
51883;SDS011;37915;53.254;6.598;2023-12-29T03:23:52;22.13;;;5.95;;
51883;SDS011;37915;53.254;6.598;2023-12-29T03:26:18;24.50;;;5.63;;
51883;SDS011;37915;53.254;6.598;2023-12-29T03:28:45;19.42;;;6.15;;
51883;SDS011;37915;53.254;6.598;2023-12-29T03:31:11;29.50;;;6.05;;
51883;SDS011;37915;53.254;6.598;2023-12-29T03:33:37;34.17;;;7.18;;
51883;SDS011;37915;53.254;6.598;2023-12-29T03:36:05;36.35;;;6.75;;
51883;SDS011;37915;53.254;6.598;2023-12-29T03:38:32;22.63;;;5.78;;
51883;SDS011;37915;53.254;6.598;2023-12-29T03:40:58;28.27;;;5.85;;
51883;SDS011;37915;53.254;6.598;2023-12-29T03:43:24;30.17;;;6.55;;
51883;SDS011;37915;53.254;6.598;2023-12-29T03:45:51;28.00;;;7.00;;
51883;SDS011;37915;53.254;6.598;2023-12-29T03:48:17;21.17;;;5.28;;
51883;SDS011;37915;53.254;6.598;2023-12-29T03:50:43;21.77;;;6.07;;
51883;SDS011;37915;53.254;6.598;2023-12-29T03:53:09;25.27;;;5.45;;
51883;SDS011;37915;53.254;6.598;2023-12-29T03:55:35;19.33;;;4.88;;
51883;SDS011;37915;53.254;6.598;2023-12-29T03:58:02;15.85;;;4.60;;
51883;SDS011;37915;53.254;6.598;2023-12-29T04:00:28;22.73;;;5.68;;
51883;SDS011;37915;53.254;6.598;2023-12-29T04:02:54;19.08;;;5.15;;
51883;SDS011;37915;53.254;6.598;2023-12-29T04:05:20;22.77;;;5.72;;
51883;SDS011;37915;53.254;6.598;2023-12-29T04:07:46;29.02;;;5.78;;
51883;SDS011;37915;53.254;6.598;2023-12-29T04:10:13;21.42;;;5.80;;
51883;SDS011;37915;53.254;6.598;2023-12-29T04:12:39;24.08;;;5.60;;
51883;SDS011;37915;53.254;6.598;2023-12-29T04:15:05;18.77;;;5.00;;
51883;SDS011;37915;53.254;6.598;2023-12-29T04:17:31;32.20;;;5.88;;
51883;SDS011;37915;53.254;6.598;2023-12-29T04:19:57;23.48;;;5.20;;
51883;SDS011;37915;53.254;6.598;2023-12-29T04:22:24;17.55;;;5.22;;
51883;SDS011;37915;53.254;6.598;2023-12-29T04:24:51;27.30;;;6.22;;
51883;SDS011;37915;53.254;6.598;2023-12-29T04:27:17;18.95;;;5.68;;
51883;SDS011;37915;53.254;6.598;2023-12-29T04:29:44;18.52;;;5.40;;
51883;SDS011;37915;53.254;6.598;2023-12-29T04:32:10;25.73;;;6.00;;
51883;SDS011;37915;53.254;6.598;2023-12-29T04:34:36;21.73;;;6.28;;
51883;SDS011;37915;53.254;6.598;2023-12-29T04:37:02;36.63;;;6.95;;
51883;SDS011;37915;53.254;6.598;2023-12-29T04:39:28;25.13;;;5.43;;
51883;SDS011;37915;53.254;6.598;2023-12-29T04:41:54;29.70;;;5.78;;
51883;SDS011;37915;53.254;6.598;2023-12-29T04:44:21;20.60;;;5.82;;
51883;SDS011;37915;53.254;6.598;2023-12-29T04:46:47;20.10;;;5.75;;
51883;SDS011;37915;53.254;6.598;2023-12-29T04:49:13;23.77;;;5.57;;
51883;SDS011;37915;53.254;6.598;2023-12-29T04:51:39;18.27;;;5.38;;
51883;SDS011;37915;53.254;6.598;2023-12-29T04:54:05;22.40;;;6.75;;
51883;SDS011;37915;53.254;6.598;2023-12-29T04:56:31;24.70;;;5.72;;
51883;SDS011;37915;53.254;6.598;2023-12-29T04:58:57;28.88;;;5.72;;
51883;SDS011;37915;53.254;6.598;2023-12-29T05:01:25;20.63;;;5.05;;
51883;SDS011;37915;53.254;6.598;2023-12-29T05:03:51;16.83;;;4.97;;
51883;SDS011;37915;53.254;6.598;2023-12-29T05:06:17;23.60;;;4.68;;
51883;SDS011;37915;53.254;6.598;2023-12-29T05:08:43;20.20;;;5.45;;
51883;SDS011;37915;53.254;6.598;2023-12-29T05:11:09;20.40;;;5.00;;
51883;SDS011;37915;53.254;6.598;2023-12-29T05:13:35;22.65;;;4.65;;
51883;SDS011;37915;53.254;6.598;2023-12-29T05:16:01;24.52;;;5.40;;
51883;SDS011;37915;53.254;6.598;2023-12-29T05:18:28;19.48;;;5.13;;
51883;SDS011;37915;53.254;6.598;2023-12-29T05:20:55;21.98;;;4.88;;
51883;SDS011;37915;53.254;6.598;2023-12-29T05:23:21;21.13;;;5.43;;
51883;SDS011;37915;53.254;6.598;2023-12-29T05:25:47;26.95;;;5.13;;
51883;SDS011;37915;53.254;6.598;2023-12-29T05:28:13;26.50;;;5.75;;
51883;SDS011;37915;53.254;6.598;2023-12-29T05:30:39;21.42;;;5.38;;
51883;SDS011;37915;53.254;6.598;2023-12-29T05:33:05;20.15;;;4.57;;
51883;SDS011;37915;53.254;6.598;2023-12-29T05:35:31;25.98;;;5.50;;
51883;SDS011;37915;53.254;6.598;2023-12-29T05:37:57;20.73;;;4.82;;
51883;SDS011;37915;53.254;6.598;2023-12-29T05:40:23;20.00;;;5.13;;
51883;SDS011;37915;53.254;6.598;2023-12-29T05:42:49;24.90;;;5.93;;
51883;SDS011;37915;53.254;6.598;2023-12-29T05:45:16;17.75;;;5.20;;
51883;SDS011;37915;53.254;6.598;2023-12-29T05:47:42;24.75;;;5.30;;
51883;SDS011;37915;53.254;6.598;2023-12-29T05:50:09;22.05;;;5.05;;
51883;SDS011;37915;53.254;6.598;2023-12-29T05:52:35;34.67;;;6.80;;
51883;SDS011;37915;53.254;6.598;2023-12-29T05:55:01;21.50;;;5.47;;
51883;SDS011;37915;53.254;6.598;2023-12-29T05:57:28;29.02;;;5.40;;
51883;SDS011;37915;53.254;6.598;2023-12-29T05:59:54;28.98;;;6.22;;
51883;SDS011;37915;53.254;6.598;2023-12-29T06:02:20;23.02;;;5.45;;
51883;SDS011;37915;53.254;6.598;2023-12-29T06:04:46;25.58;;;5.72;;
51883;SDS011;37915;53.254;6.598;2023-12-29T06:07:12;31.17;;;6.45;;
51883;SDS011;37915;53.254;6.598;2023-12-29T06:09:38;25.75;;;6.07;;
51883;SDS011;37915;53.254;6.598;2023-12-29T06:12:04;21.55;;;5.18;;
51883;SDS011;37915;53.254;6.598;2023-12-29T06:14:30;30.40;;;5.65;;
51883;SDS011;37915;53.254;6.598;2023-12-29T06:16:57;30.98;;;5.63;;
51883;SDS011;37915;53.254;6.598;2023-12-29T06:19:23;22.92;;;5.95;;
51883;SDS011;37915;53.254;6.598;2023-12-29T06:21:49;28.67;;;5.47;;
51883;SDS011;37915;53.254;6.598;2023-12-29T06:24:15;24.50;;;5.70;;
51883;SDS011;37915;53.254;6.598;2023-12-29T06:26:41;28.08;;;5.50;;
51883;SDS011;37915;53.254;6.598;2023-12-29T06:29:09;30.52;;;6.13;;
51883;SDS011;37915;53.254;6.598;2023-12-29T06:31:35;17.95;;;5.15;;
51883;SDS011;37915;53.254;6.598;2023-12-29T06:34:01;24.27;;;5.93;;
51883;SDS011;37915;53.254;6.598;2023-12-29T06:36:28;25.33;;;5.30;;
51883;SDS011;37915;53.254;6.598;2023-12-29T06:38:54;24.42;;;5.70;;
51883;SDS011;37915;53.254;6.598;2023-12-29T06:41:20;31.55;;;6.88;;
51883;SDS011;37915;53.254;6.598;2023-12-29T06:43:47;27.38;;;5.50;;
51883;SDS011;37915;53.254;6.598;2023-12-29T06:46:13;23.27;;;5.38;;
51883;SDS011;37915;53.254;6.598;2023-12-29T06:48:39;22.35;;;5.75;;
51883;SDS011;37915;53.254;6.598;2023-12-29T06:51:05;21.67;;;5.40;;
51883;SDS011;37915;53.254;6.598;2023-12-29T06:53:32;24.70;;;5.00;;
51883;SDS011;37915;53.254;6.598;2023-12-29T06:55:58;28.08;;;6.00;;
51883;SDS011;37915;53.254;6.598;2023-12-29T06:58:24;25.40;;;5.38;;
51883;SDS011;37915;53.254;6.598;2023-12-29T07:00:50;20.17;;;5.10;;
51883;SDS011;37915;53.254;6.598;2023-12-29T07:03:16;23.35;;;5.93;;
51883;SDS011;37915;53.254;6.598;2023-12-29T07:05:42;28.38;;;6.35;;
51883;SDS011;37915;53.254;6.598;2023-12-29T07:08:12;29.52;;;5.85;;
51883;SDS011;37915;53.254;6.598;2023-12-29T07:10:38;24.55;;;5.65;;
51883;SDS011;37915;53.254;6.598;2023-12-29T07:13:05;27.27;;;6.13;;
51883;SDS011;37915;53.254;6.598;2023-12-29T07:15:31;28.17;;;6.70;;
51883;SDS011;37915;53.254;6.598;2023-12-29T07:17:57;22.95;;;5.75;;
51883;SDS011;37915;53.254;6.598;2023-12-29T07:20:23;20.05;;;5.55;;
51883;SDS011;37915;53.254;6.598;2023-12-29T07:22:49;33.25;;;5.95;;
51883;SDS011;37915;53.254;6.598;2023-12-29T07:25:15;32.20;;;6.20;;
51883;SDS011;37915;53.254;6.598;2023-12-29T07:27:41;36.00;;;6.50;;
51883;SDS011;37915;53.254;6.598;2023-12-29T07:30:07;27.02;;;4.93;;
51883;SDS011;37915;53.254;6.598;2023-12-29T07:32:34;23.55;;;6.78;;
51883;SDS011;37915;53.254;6.598;2023-12-29T07:35:00;29.20;;;5.60;;
51883;SDS011;37915;53.254;6.598;2023-12-29T07:37:26;21.77;;;5.60;;
51883;SDS011;37915;53.254;6.598;2023-12-29T07:39:52;23.13;;;5.18;;
51883;SDS011;37915;53.254;6.598;2023-12-29T07:42:18;25.42;;;5.80;;
51883;SDS011;37915;53.254;6.598;2023-12-29T07:44:44;24.42;;;5.55;;
51883;SDS011;37915;53.254;6.598;2023-12-29T07:47:11;22.45;;;6.05;;
51883;SDS011;37915;53.254;6.598;2023-12-29T07:49:37;25.30;;;6.38;;
51883;SDS011;37915;53.254;6.598;2023-12-29T07:52:03;28.55;;;5.95;;
51883;SDS011;37915;53.254;6.598;2023-12-29T07:54:29;34.08;;;7.00;;
51883;SDS011;37915;53.254;6.598;2023-12-29T07:56:55;32.78;;;6.90;;
51883;SDS011;37915;53.254;6.598;2023-12-29T07:59:21;29.35;;;6.70;;
51883;SDS011;37915;53.254;6.598;2023-12-29T08:01:47;27.42;;;6.05;;
51883;SDS011;37915;53.254;6.598;2023-12-29T08:04:13;23.88;;;5.97;;
51883;SDS011;37915;53.254;6.598;2023-12-29T08:06:40;19.00;;;5.00;;
51883;SDS011;37915;53.254;6.598;2023-12-29T08:09:06;23.85;;;5.70;;
51883;SDS011;37915;53.254;6.598;2023-12-29T08:11:32;28.85;;;5.68;;
51883;SDS011;37915;53.254;6.598;2023-12-29T08:13:58;24.95;;;5.97;;
51883;SDS011;37915;53.254;6.598;2023-12-29T08:16:24;22.67;;;6.07;;
51883;SDS011;37915;53.254;6.598;2023-12-29T08:18:51;24.77;;;5.63;;
51883;SDS011;37915;53.254;6.598;2023-12-29T08:21:20;25.67;;;5.40;;
51883;SDS011;37915;53.254;6.598;2023-12-29T08:23:47;21.80;;;5.75;;
51883;SDS011;37915;53.254;6.598;2023-12-29T08:26:13;23.67;;;5.97;;
51883;SDS011;37915;53.254;6.598;2023-12-29T08:28:40;19.85;;;4.55;;
51883;SDS011;37915;53.254;6.598;2023-12-29T08:31:06;16.40;;;4.93;;
51883;SDS011;37915;53.254;6.598;2023-12-29T08:33:33;20.55;;;4.57;;
51883;SDS011;37915;53.254;6.598;2023-12-29T08:36:01;24.90;;;4.85;;
51883;SDS011;37915;53.254;6.598;2023-12-29T08:38:27;20.80;;;5.30;;
51883;SDS011;37915;53.254;6.598;2023-12-29T08:40:53;19.30;;;4.80;;
51883;SDS011;37915;53.254;6.598;2023-12-29T08:43:19;17.98;;;4.80;;
51883;SDS011;37915;53.254;6.598;2023-12-29T08:45:47;21.00;;;4.93;;
51883;SDS011;37915;53.254;6.598;2023-12-29T08:48:13;17.95;;;4.40;;
51883;SDS011;37915;53.254;6.598;2023-12-29T08:50:39;24.13;;;5.35;;
51883;SDS011;37915;53.254;6.598;2023-12-29T08:53:05;23.98;;;5.28;;
51883;SDS011;37915;53.254;6.598;2023-12-29T08:55:31;21.27;;;5.13;;
51883;SDS011;37915;53.254;6.598;2023-12-29T08:57:57;21.08;;;5.63;;
51883;SDS011;37915;53.254;6.598;2023-12-29T09:00:23;22.17;;;5.72;;
51883;SDS011;37915;53.254;6.598;2023-12-29T09:02:50;24.65;;;4.60;;
51883;SDS011;37915;53.254;6.598;2023-12-29T09:05:16;22.52;;;4.75;;
51883;SDS011;37915;53.254;6.598;2023-12-29T09:07:42;21.90;;;5.72;;
51883;SDS011;37915;53.254;6.598;2023-12-29T09:10:08;20.20;;;5.18;;
51883;SDS011;37915;53.254;6.598;2023-12-29T09:12:37;27.52;;;6.00;;
51883;SDS011;37915;53.254;6.598;2023-12-29T09:15:04;24.33;;;6.47;;
51883;SDS011;37915;53.254;6.598;2023-12-29T09:17:30;26.88;;;5.65;;
51883;SDS011;37915;53.254;6.598;2023-12-29T09:19:56;22.65;;;5.72;;
51883;SDS011;37915;53.254;6.598;2023-12-29T09:22:22;24.40;;;5.28;;
51883;SDS011;37915;53.254;6.598;2023-12-29T09:24:48;19.75;;;5.55;;
51883;SDS011;37915;53.254;6.598;2023-12-29T09:27:14;23.55;;;5.35;;
51883;SDS011;37915;53.254;6.598;2023-12-29T09:29:41;28.05;;;6.10;;
51883;SDS011;37915;53.254;6.598;2023-12-29T09:32:07;27.45;;;5.65;;
51883;SDS011;37915;53.254;6.598;2023-12-29T09:34:33;24.73;;;5.55;;
51883;SDS011;37915;53.254;6.598;2023-12-29T09:36:59;17.63;;;5.40;;
51883;SDS011;37915;53.254;6.598;2023-12-29T09:39:25;22.38;;;5.82;;
51883;SDS011;37915;53.254;6.598;2023-12-29T09:41:52;20.58;;;5.75;;
51883;SDS011;37915;53.254;6.598;2023-12-29T09:44:20;24.38;;;5.35;;
51883;SDS011;37915;53.254;6.598;2023-12-29T09:46:50;20.92;;;4.75;;
51883;SDS011;37915;53.254;6.598;2023-12-29T09:49:19;24.55;;;5.43;;
51883;SDS011;37915;53.254;6.598;2023-12-29T09:51:45;27.75;;;5.55;;
51883;SDS011;37915;53.254;6.598;2023-12-29T09:54:11;20.58;;;5.18;;
51883;SDS011;37915;53.254;6.598;2023-12-29T09:56:38;23.92;;;5.50;;
51883;SDS011;37915;53.254;6.598;2023-12-29T09:59:05;21.05;;;5.65;;
51883;SDS011;37915;53.254;6.598;2023-12-29T10:01:32;23.75;;;5.03;;
51883;SDS011;37915;53.254;6.598;2023-12-29T10:03:59;19.45;;;4.90;;
51883;SDS011;37915;53.254;6.598;2023-12-29T10:06:25;21.10;;;5.10;;
51883;SDS011;37915;53.254;6.598;2023-12-29T10:08:51;24.67;;;6.10;;
51883;SDS011;37915;53.254;6.598;2023-12-29T10:11:22;18.65;;;4.50;;
51883;SDS011;37915;53.254;6.598;2023-12-29T10:13:49;19.02;;;5.78;;
51883;SDS011;37915;53.254;6.598;2023-12-29T10:16:22;21.55;;;5.07;;
51883;SDS011;37915;53.254;6.598;2023-12-29T10:24:20;16.70;;;4.20;;
51883;SDS011;37915;53.254;6.598;2023-12-29T10:26:47;22.42;;;4.55;;
51883;SDS011;37915;53.254;6.598;2023-12-29T10:29:14;19.08;;;4.60;;
51883;SDS011;37915;53.254;6.598;2023-12-29T10:31:41;20.40;;;4.07;;
51883;SDS011;37915;53.254;6.598;2023-12-29T10:37:02;19.10;;;4.43;;
51883;SDS011;37915;53.254;6.598;2023-12-29T10:39:34;15.93;;;3.92;;
51883;SDS011;37915;53.254;6.598;2023-12-29T10:42:07;15.38;;;3.67;;
51883;SDS011;37915;53.254;6.598;2023-12-29T10:44:34;15.68;;;3.60;;
51883;SDS011;37915;53.254;6.598;2023-12-29T10:47:10;15.32;;;3.13;;
51883;SDS011;37915;53.254;6.598;2023-12-29T10:49:36;15.10;;;3.50;;
51883;SDS011;37915;53.254;6.598;2023-12-29T10:52:12;14.70;;;3.95;;
51883;SDS011;37915;53.254;6.598;2023-12-29T10:54:39;13.65;;;4.38;;
51883;SDS011;37915;53.254;6.598;2023-12-29T10:57:07;16.85;;;3.88;;
51883;SDS011;37915;53.254;6.598;2023-12-29T10:59:33;15.43;;;4.00;;
51883;SDS011;37915;53.254;6.598;2023-12-29T11:02:00;20.30;;;3.97;;
51883;SDS011;37915;53.254;6.598;2023-12-29T11:04:28;14.00;;;2.88;;
51883;SDS011;37915;53.254;6.598;2023-12-29T11:06:54;14.75;;;3.60;;
51883;SDS011;37915;53.254;6.598;2023-12-29T11:09:27;15.88;;;3.97;;
51883;SDS011;37915;53.254;6.598;2023-12-29T11:11:55;15.70;;;3.53;;
51883;SDS011;37915;53.254;6.598;2023-12-29T11:14:21;14.98;;;2.88;;
51883;SDS011;37915;53.254;6.598;2023-12-29T11:16:48;18.13;;;3.45;;
51883;SDS011;37915;53.254;6.598;2023-12-29T11:19:14;13.70;;;3.50;;
51883;SDS011;37915;53.254;6.598;2023-12-29T11:21:41;17.08;;;3.95;;
51883;SDS011;37915;53.254;6.598;2023-12-29T11:24:08;13.30;;;3.40;;
51883;SDS011;37915;53.254;6.598;2023-12-29T11:26:34;12.35;;;3.35;;
51883;SDS011;37915;53.254;6.598;2023-12-29T11:29:00;11.07;;;3.80;;
51883;SDS011;37915;53.254;6.598;2023-12-29T11:31:29;12.10;;;3.47;;
51883;SDS011;37915;53.254;6.598;2023-12-29T11:34:05;18.80;;;4.20;;
51883;SDS011;37915;53.254;6.598;2023-12-29T11:36:33;14.68;;;3.30;;
51883;SDS011;37915;53.254;6.598;2023-12-29T11:41:40;14.63;;;3.72;;
51883;SDS011;37915;53.254;6.598;2023-12-29T11:44:08;13.98;;;3.10;;
51883;SDS011;37915;53.254;6.598;2023-12-29T11:46:38;15.32;;;3.63;;
51883;SDS011;37915;53.254;6.598;2023-12-29T11:49:04;19.85;;;4.72;;
51883;SDS011;37915;53.254;6.598;2023-12-29T11:51:32;15.48;;;3.10;;
51883;SDS011;37915;53.254;6.598;2023-12-29T11:53:58;20.08;;;4.10;;
51883;SDS011;37915;53.254;6.598;2023-12-29T11:56:30;15.75;;;4.15;;
51883;SDS011;37915;53.254;6.598;2023-12-29T11:58:57;13.25;;;3.40;;
51883;SDS011;37915;53.254;6.598;2023-12-29T12:01:57;14.82;;;3.33;;
51883;SDS011;37915;53.254;6.598;2023-12-29T12:07:05;11.90;;;3.20;;
51883;SDS011;37915;53.254;6.598;2023-12-29T12:09:32;15.13;;;3.03;;
51883;SDS011;37915;53.254;6.598;2023-12-29T12:12:00;12.20;;;3.35;;
51883;SDS011;37915;53.254;6.598;2023-12-29T12:17:26;12.48;;;3.15;;
51883;SDS011;37915;53.254;6.598;2023-12-29T12:19:56;12.77;;;3.63;;
51883;SDS011;37915;53.254;6.598;2023-12-29T12:22:23;14.57;;;3.65;;
51883;SDS011;37915;53.254;6.598;2023-12-29T12:24:57;18.15;;;3.40;;
51883;SDS011;37915;53.254;6.598;2023-12-29T12:27:24;13.80;;;3.95;;
51883;SDS011;37915;53.254;6.598;2023-12-29T12:29:54;9.93;;;3.33;;
51883;SDS011;37915;53.254;6.598;2023-12-29T12:32:26;11.73;;;2.92;;
51883;SDS011;37915;53.254;6.598;2023-12-29T12:34:53;12.65;;;3.22;;
51883;SDS011;37915;53.254;6.598;2023-12-29T12:37:20;15.68;;;3.55;;
51883;SDS011;37915;53.254;6.598;2023-12-29T12:39:46;17.77;;;3.90;;
51883;SDS011;37915;53.254;6.598;2023-12-29T12:42:13;11.82;;;3.22;;
51883;SDS011;37915;53.254;6.598;2023-12-29T12:44:40;16.55;;;3.17;;
51883;SDS011;37915;53.254;6.598;2023-12-29T12:47:08;11.30;;;3.88;;
51883;SDS011;37915;53.254;6.598;2023-12-29T12:49:35;15.93;;;3.90;;
51883;SDS011;37915;53.254;6.598;2023-12-29T12:52:02;12.38;;;3.35;;
51883;SDS011;37915;53.254;6.598;2023-12-29T12:54:28;20.10;;;3.97;;
51883;SDS011;37915;53.254;6.598;2023-12-29T12:56:54;14.70;;;3.80;;
51883;SDS011;37915;53.254;6.598;2023-12-29T12:59:21;11.07;;;4.03;;
51883;SDS011;37915;53.254;6.598;2023-12-29T13:01:47;16.95;;;3.80;;
51883;SDS011;37915;53.254;6.598;2023-12-29T13:04:13;19.55;;;4.47;;
51883;SDS011;37915;53.254;6.598;2023-12-29T13:06:40;13.48;;;3.60;;
51883;SDS011;37915;53.254;6.598;2023-12-29T13:09:06;16.23;;;3.83;;
51883;SDS011;37915;53.254;6.598;2023-12-29T13:11:36;16.42;;;3.40;;
51883;SDS011;37915;53.254;6.598;2023-12-29T13:14:03;15.27;;;3.80;;
51883;SDS011;37915;53.254;6.598;2023-12-29T13:16:33;18.70;;;4.15;;
51883;SDS011;37915;53.254;6.598;2023-12-29T13:21:45;15.40;;;3.53;;
51883;SDS011;37915;53.254;6.598;2023-12-29T13:24:11;18.90;;;3.85;;
51883;SDS011;37915;53.254;6.598;2023-12-29T13:26:38;19.10;;;4.15;;
51883;SDS011;37915;53.254;6.598;2023-12-29T13:29:04;16.10;;;3.78;;
51883;SDS011;37915;53.254;6.598;2023-12-29T13:31:31;16.75;;;3.55;;
51883;SDS011;37915;53.254;6.598;2023-12-29T13:33:59;18.70;;;3.70;;
51883;SDS011;37915;53.254;6.598;2023-12-29T13:36:34;13.18;;;3.78;;
51883;SDS011;37915;53.254;6.598;2023-12-29T13:39:13;15.23;;;3.90;;
51883;SDS011;37915;53.254;6.598;2023-12-29T13:41:40;17.52;;;3.78;;
51883;SDS011;37915;53.254;6.598;2023-12-29T13:44:07;14.38;;;3.63;;
51883;SDS011;37915;53.254;6.598;2023-12-29T13:46:34;18.10;;;4.72;;
51883;SDS011;37915;53.254;6.598;2023-12-29T13:49:01;19.35;;;4.10;;
51883;SDS011;37915;53.254;6.598;2023-12-29T13:51:27;12.85;;;3.45;;
51883;SDS011;37915;53.254;6.598;2023-12-29T13:53:57;15.90;;;3.88;;
51883;SDS011;37915;53.254;6.598;2023-12-29T13:56:24;11.02;;;3.42;;
51883;SDS011;37915;53.254;6.598;2023-12-29T13:58:51;11.85;;;3.95;;
51883;SDS011;37915;53.254;6.598;2023-12-29T14:01:18;19.20;;;3.97;;
51883;SDS011;37915;53.254;6.598;2023-12-29T14:06:11;12.45;;;3.85;;
51883;SDS011;37915;53.254;6.598;2023-12-29T14:08:39;15.23;;;3.80;;
51883;SDS011;37915;53.254;6.598;2023-12-29T14:11:07;16.20;;;3.92;;
51883;SDS011;37915;53.254;6.598;2023-12-29T14:13:34;18.95;;;4.20;;
51883;SDS011;37915;53.254;6.598;2023-12-29T14:16:00;15.52;;;3.75;;
51883;SDS011;37915;53.254;6.598;2023-12-29T14:20:52;14.40;;;3.45;;
51883;SDS011;37915;53.254;6.598;2023-12-29T14:23:18;15.57;;;3.90;;
51883;SDS011;37915;53.254;6.598;2023-12-29T14:25:47;16.73;;;4.07;;
51883;SDS011;37915;53.254;6.598;2023-12-29T14:28:17;15.82;;;3.70;;
51883;SDS011;37915;53.254;6.598;2023-12-29T14:30:44;14.95;;;3.65;;
51883;SDS011;37915;53.254;6.598;2023-12-29T14:33:10;17.83;;;4.35;;
51883;SDS011;37915;53.254;6.598;2023-12-29T14:35:36;14.32;;;4.22;;
51883;SDS011;37915;53.254;6.598;2023-12-29T14:38:03;11.48;;;3.15;;
51883;SDS011;37915;53.254;6.598;2023-12-29T14:40:29;18.25;;;4.05;;
51883;SDS011;37915;53.254;6.598;2023-12-29T14:42:55;14.25;;;4.00;;
51883;SDS011;37915;53.254;6.598;2023-12-29T14:45:21;16.80;;;3.60;;
51883;SDS011;37915;53.254;6.598;2023-12-29T14:47:48;13.05;;;3.33;;
51883;SDS011;37915;53.254;6.598;2023-12-29T14:50:14;16.75;;;4.13;;
51883;SDS011;37915;53.254;6.598;2023-12-29T14:52:41;15.00;;;3.75;;
51883;SDS011;37915;53.254;6.598;2023-12-29T14:55:07;16.05;;;3.65;;
51883;SDS011;37915;53.254;6.598;2023-12-29T14:57:33;17.38;;;3.65;;